Strona główna
METAR-TAF:

METAR-TAF

Lotnisko :

Custer County Airport

Custer, Dakota Południowa, Stany Zjednoczone

Szerokość geograficzna: 43-43-59N, Długość geograficzna: 103-37-03W, wysokość: 1707 m

Aktualna obserwacja pogody

Raport powstał 42 minut temu, godzina 09:53 UTC
Wiatr 11 kt od zachodnio-południowy zachód
Temperatura 0°C
Wilgotność 47%
Ciśnienie 1013 hPa
Widzialność: 16.1 km
bezchmurnie

METAR: KCUT 020953Z AUTO 25011KT 10SM CLR 00/M10 A2990 RMK AO2 SLP133 T00001100

czas: 03:35 (10:35 UTC)


TAF: brakujący

Obserwacja i prognoza pogody dla ponad 4000 lotnisk (raport METAR i TAF).

Dostępne stacje oznaczono żółtymi i czerwonymi punktami na mapie.

Najedź kursorem aby zobaczyć nazwę stacji.

Kliknij aby zobaczyć obserwacje i prognozy pogody.

Aby zmienić mapę: kliknij na zielony przycisk z czarnym krzyżykiem, aby powiększyć; na zielony przycisk z myślnikiem, aby pomniejszyć; na zielone strzałki, aby przejść do map sąsiednich.


METAR-TAF: